sensor_id;sensor_type;location;lat;lon;timestamp;temperature;humidity
64817;DHT22;53289;45.602;11.904;2022-10-16T00:02:06;17.30;75.60
64817;DHT22;53289;45.602;11.904;2022-10-16T00:04:32;17.30;75.50
64817;DHT22;53289;45.602;11.904;2022-10-16T00:06:58;17.30;75.60
64817;DHT22;53289;45.602;11.904;2022-10-16T00:09:24;17.20;75.70
64817;DHT22;53289;45.602;11.904;2022-10-16T00:11:50;17.20;75.60
64817;DHT22;53289;45.602;11.904;2022-10-16T00:14:16;17.20;75.70
64817;DHT22;53289;45.602;11.904;2022-10-16T00:16:42;17.20;75.80
64817;DHT22;53289;45.602;11.904;2022-10-16T00:19:09;17.20;76.10
64817;DHT22;53289;45.602;11.904;2022-10-16T00:21:36;17.10;76.20
64817;DHT22;53289;45.602;11.904;2022-10-16T00:24:05;17.10;76.40
64817;DHT22;53289;45.602;11.904;2022-10-16T00:26:37;17.10;76.30
64817;DHT22;53289;45.602;11.904;2022-10-16T00:29:03;17.00;76.30
64817;DHT22;53289;45.602;11.904;2022-10-16T00:31:30;17.00;76.30
64817;DHT22;53289;45.602;11.904;2022-10-16T00:33:56;17.00;76.50
64817;DHT22;53289;45.602;11.904;2022-10-16T00:36:24;17.00;76.50
64817;DHT22;53289;45.602;11.904;2022-10-16T00:38:55;17.00;76.50
64817;DHT22;53289;45.602;11.904;2022-10-16T00:41:24;17.00;76.60
64817;DHT22;53289;45.602;11.904;2022-10-16T00:43:58;17.00;76.60
64817;DHT22;53289;45.602;11.904;2022-10-16T00:52:00;17.00;76.70
64817;DHT22;53289;45.602;11.904;2022-10-16T00:54:28;17.00;76.80
64817;DHT22;53289;45.602;11.904;2022-10-16T00:56:56;17.00;77.20
64817;DHT22;53289;45.602;11.904;2022-10-16T00:59:28;17.00;77.30
64817;DHT22;53289;45.602;11.904;2022-10-16T01:01:55;16.90;77.00
64817;DHT22;53289;45.602;11.904;2022-10-16T01:04:23;16.90;77.00
64817;DHT22;53289;45.602;11.904;2022-10-16T01:17:11;16.90;77.10
64817;DHT22;53289;45.602;11.904;2022-10-16T01:25:18;16.90;77.10
64817;DHT22;53289;45.602;11.904;2022-10-16T01:27:46;16.80;77.20
64817;DHT22;53289;45.602;11.904;2022-10-16T01:30:27;16.90;77.40
64817;DHT22;53289;45.602;11.904;2022-10-16T01:33:11;16.80;77.50
64817;DHT22;53289;45.602;11.904;2022-10-16T01:35:52;16.80;77.40
64817;DHT22;53289;45.602;11.904;2022-10-16T01:38:33;16.70;77.50
64817;DHT22;53289;45.602;11.904;2022-10-16T01:41:11;16.70;77.50
64817;DHT22;53289;45.602;11.904;2022-10-16T01:43:45;16.70;77.60
64817;DHT22;53289;45.602;11.904;2022-10-16T01:46:12;16.70;77.50
64817;DHT22;53289;45.602;11.904;2022-10-16T01:48:40;16.70;78.40
64817;DHT22;53289;45.602;11.904;2022-10-16T01:51:10;16.60;77.70
64817;DHT22;53289;45.602;11.904;2022-10-16T01:53:39;16.60;77.60
64817;DHT22;53289;45.602;11.904;2022-10-16T01:56:09;16.60;77.60
64817;DHT22;53289;45.602;11.904;2022-10-16T01:58:40;16.60;77.50
64817;DHT22;53289;45.602;11.904;2022-10-16T02:01:09;16.60;77.80
64817;DHT22;53289;45.602;11.904;2022-10-16T02:03:40;16.60;78.20
64817;DHT22;53289;45.602;11.904;2022-10-16T02:06:08;16.60;77.90
64817;DHT22;53289;45.602;11.904;2022-10-16T02:08:34;16.50;77.80
64817;DHT22;53289;45.602;11.904;2022-10-16T02:11:01;16.50;77.90
64817;DHT22;53289;45.602;11.904;2022-10-16T02:13:36;16.50;77.90
64817;DHT22;53289;45.602;11.904;2022-10-16T02:16:03;16.40;78.40
64817;DHT22;53289;45.602;11.904;2022-10-16T02:18:29;16.40;78.20
64817;DHT22;53289;45.602;11.904;2022-10-16T02:24:03;16.40;78.10
64817;DHT22;53289;45.602;11.904;2022-10-16T02:29:37;16.50;78.00
64817;DHT22;53289;45.602;11.904;2022-10-16T02:32:07;16.50;78.00
64817;DHT22;53289;45.602;11.904;2022-10-16T02:34:34;16.50;78.00
64817;DHT22;53289;45.602;11.904;2022-10-16T02:37:03;16.50;78.00
64817;DHT22;53289;45.602;11.904;2022-10-16T02:39:30;16.50;78.00
64817;DHT22;53289;45.602;11.904;2022-10-16T02:41:56;16.50;78.10
64817;DHT22;53289;45.602;11.904;2022-10-16T02:44:22;16.50;78.20
64817;DHT22;53289;45.602;11.904;2022-10-16T02:46:48;16.50;78.20
64817;DHT22;53289;45.602;11.904;2022-10-16T02:49:14;16.50;78.10
64817;DHT22;53289;45.602;11.904;2022-10-16T02:51:41;16.50;78.10
64817;DHT22;53289;45.602;11.904;2022-10-16T02:54:07;16.50;78.20
64817;DHT22;53289;45.602;11.904;2022-10-16T02:56:33;16.50;78.30
64817;DHT22;53289;45.602;11.904;2022-10-16T02:58:59;16.50;78.30
64817;DHT22;53289;45.602;11.904;2022-10-16T03:01:25;16.50;78.10
64817;DHT22;53289;45.602;11.904;2022-10-16T03:03:51;16.50;78.10
64817;DHT22;53289;45.602;11.904;2022-10-16T03:06:17;16.50;78.10
64817;DHT22;53289;45.602;11.904;2022-10-16T03:08:43;16.50;78.40
64817;DHT22;53289;45.602;11.904;2022-10-16T03:11:09;16.50;78.40
64817;DHT22;53289;45.602;11.904;2022-10-16T03:13:35;16.50;78.30
64817;DHT22;53289;45.602;11.904;2022-10-16T03:16:01;16.50;78.40
64817;DHT22;53289;45.602;11.904;2022-10-16T03:18:27;16.40;78.50
64817;DHT22;53289;45.602;11.904;2022-10-16T03:20:53;16.40;78.70
64817;DHT22;53289;45.602;11.904;2022-10-16T03:23:18;16.40;79.10
64817;DHT22;53289;45.602;11.904;2022-10-16T03:25:44;16.40;78.70
64817;DHT22;53289;45.602;11.904;2022-10-16T03:28:10;16.40;78.70
64817;DHT22;53289;45.602;11.904;2022-10-16T03:30:37;16.40;79.00
64817;DHT22;53289;45.602;11.904;2022-10-16T03:33:05;16.40;79.20
64817;DHT22;53289;45.602;11.904;2022-10-16T03:35:33;16.40;79.40
64817;DHT22;53289;45.602;11.904;2022-10-16T03:37:59;16.40;80.20
64817;DHT22;53289;45.602;11.904;2022-10-16T03:40:25;16.30;80.60
64817;DHT22;53289;45.602;11.904;2022-10-16T03:42:51;16.30;81.20
64817;DHT22;53289;45.602;11.904;2022-10-16T03:45:17;16.20;80.60
64817;DHT22;53289;45.602;11.904;2022-10-16T03:47:43;16.20;80.90
64817;DHT22;53289;45.602;11.904;2022-10-16T03:50:09;16.10;81.10
64817;DHT22;53289;45.602;11.904;2022-10-16T03:52:35;16.10;81.00
64817;DHT22;53289;45.602;11.904;2022-10-16T03:55:00;16.10;80.80
64817;DHT22;53289;45.602;11.904;2022-10-16T03:57:26;16.00;80.80
64817;DHT22;53289;45.602;11.904;2022-10-16T03:59:52;16.00;80.70
64817;DHT22;53289;45.602;11.904;2022-10-16T04:02:18;16.00;81.20
64817;DHT22;53289;45.602;11.904;2022-10-16T04:04:44;15.90;81.20
64817;DHT22;53289;45.602;11.904;2022-10-16T04:07:10;15.80;81.10
64817;DHT22;53289;45.602;11.904;2022-10-16T04:09:36;15.80;81.10
64817;DHT22;53289;45.602;11.904;2022-10-16T04:12:02;15.70;81.00
64817;DHT22;53289;45.602;11.904;2022-10-16T04:14:28;15.70;80.80
64817;DHT22;53289;45.602;11.904;2022-10-16T04:16:54;15.60;81.10
64817;DHT22;53289;45.602;11.904;2022-10-16T04:19:20;15.60;81.00
64817;DHT22;53289;45.602;11.904;2022-10-16T04:21:46;15.50;81.20
64817;DHT22;53289;45.602;11.904;2022-10-16T04:24:12;15.50;81.20
64817;DHT22;53289;45.602;11.904;2022-10-16T04:26:38;15.40;81.60
64817;DHT22;53289;45.602;11.904;2022-10-16T04:29:04;15.40;82.20
64817;DHT22;53289;45.602;11.904;2022-10-16T04:31:30;15.30;81.90
64817;DHT22;53289;45.602;11.904;2022-10-16T04:33:56;15.20;81.70
64817;DHT22;53289;45.602;11.904;2022-10-16T04:36:22;15.20;81.50
64817;DHT22;53289;45.602;11.904;2022-10-16T04:38:47;15.20;81.50
64817;DHT22;53289;45.602;11.904;2022-10-16T04:41:13;15.20;81.70
64817;DHT22;53289;45.602;11.904;2022-10-16T04:43:39;15.10;81.10
64817;DHT22;53289;45.602;11.904;2022-10-16T04:46:05;15.10;81.00
64817;DHT22;53289;45.602;11.904;2022-10-16T04:48:32;15.10;80.80
64817;DHT22;53289;45.602;11.904;2022-10-16T04:50:59;15.10;80.90
64817;DHT22;53289;45.602;11.904;2022-10-16T04:53:25;15.00;80.70
64817;DHT22;53289;45.602;11.904;2022-10-16T04:55:51;15.00;80.60
64817;DHT22;53289;45.602;11.904;2022-10-16T04:58:17;14.90;80.60
64817;DHT22;53289;45.602;11.904;2022-10-16T05:00:44;14.90;80.70
64817;DHT22;53289;45.602;11.904;2022-10-16T05:03:12;14.90;80.70
64817;DHT22;53289;45.602;11.904;2022-10-16T05:05:43;14.90;80.70
64817;DHT22;53289;45.602;11.904;2022-10-16T05:08:11;14.80;80.70
64817;DHT22;53289;45.602;11.904;2022-10-16T05:10:37;14.70;80.70
64817;DHT22;53289;45.602;11.904;2022-10-16T05:13:03;14.70;80.70
64817;DHT22;53289;45.602;11.904;2022-10-16T05:15:29;14.60;80.70
64817;DHT22;53289;45.602;11.904;2022-10-16T05:17:55;14.60;80.80
64817;DHT22;53289;45.602;11.904;2022-10-16T05:20:22;14.60;80.90
64817;DHT22;53289;45.602;11.904;2022-10-16T05:22:49;14.60;80.90
64817;DHT22;53289;45.602;11.904;2022-10-16T05:25:15;14.50;80.90
64817;DHT22;53289;45.602;11.904;2022-10-16T05:27:41;14.50;81.00
64817;DHT22;53289;45.602;11.904;2022-10-16T05:30:07;14.50;80.80
64817;DHT22;53289;45.602;11.904;2022-10-16T05:32:33;14.50;80.70
64817;DHT22;53289;45.602;11.904;2022-10-16T05:34:59;14.50;80.60
64817;DHT22;53289;45.602;11.904;2022-10-16T05:37:29;14.50;80.70
64817;DHT22;53289;45.602;11.904;2022-10-16T05:39:55;14.40;80.70
64817;DHT22;53289;45.602;11.904;2022-10-16T05:42:21;14.40;80.70
64817;DHT22;53289;45.602;11.904;2022-10-16T05:44:47;14.40;80.70
64817;DHT22;53289;45.602;11.904;2022-10-16T05:47:13;14.40;80.70
64817;DHT22;53289;45.602;11.904;2022-10-16T05:49:40;14.30;80.70
64817;DHT22;53289;45.602;11.904;2022-10-16T05:52:06;14.30;80.70
64817;DHT22;53289;45.602;11.904;2022-10-16T05:54:32;14.30;80.60
64817;DHT22;53289;45.602;11.904;2022-10-16T05:56:58;14.30;80.70
64817;DHT22;53289;45.602;11.904;2022-10-16T05:59:24;14.20;80.80
64817;DHT22;53289;45.602;11.904;2022-10-16T06:01:49;14.30;80.80
64817;DHT22;53289;45.602;11.904;2022-10-16T06:04:15;14.30;80.80
64817;DHT22;53289;45.602;11.904;2022-10-16T06:06:41;14.30;80.70
64817;DHT22;53289;45.602;11.904;2022-10-16T06:09:09;14.40;80.70
64817;DHT22;53289;45.602;11.904;2022-10-16T06:11:35;14.40;80.70
64817;DHT22;53289;45.602;11.904;2022-10-16T06:14:02;14.40;80.60
64817;DHT22;53289;45.602;11.904;2022-10-16T06:16:33;14.40;80.60
64817;DHT22;53289;45.602;11.904;2022-10-16T06:19:00;14.30;80.60
64817;DHT22;53289;45.602;11.904;2022-10-16T06:21:28;14.30;80.50
64817;DHT22;53289;45.602;11.904;2022-10-16T06:23:55;14.40;80.70
64817;DHT22;53289;45.602;11.904;2022-10-16T06:26:24;14.40;80.90
64817;DHT22;53289;45.602;11.904;2022-10-16T06:28:50;14.50;80.70
64817;DHT22;53289;45.602;11.904;2022-10-16T06:31:16;14.50;80.40
64817;DHT22;53289;45.602;11.904;2022-10-16T06:33:42;14.60;80.50
64817;DHT22;53289;45.602;11.904;2022-10-16T06:36:15;14.70;80.60
64817;DHT22;53289;45.602;11.904;2022-10-16T06:38:42;14.80;80.30
64817;DHT22;53289;45.602;11.904;2022-10-16T06:41:12;14.80;80.60
64817;DHT22;53289;45.602;11.904;2022-10-16T06:43:38;14.90;80.30
64817;DHT22;53289;45.602;11.904;2022-10-16T06:46:06;15.10;80.30
64817;DHT22;53289;45.602;11.904;2022-10-16T06:48:36;15.20;80.20
64817;DHT22;53289;45.602;11.904;2022-10-16T06:51:11;15.30;80.10
64817;DHT22;53289;45.602;11.904;2022-10-16T06:53:39;15.40;79.80
64817;DHT22;53289;45.602;11.904;2022-10-16T06:56:14;15.50;79.80
64817;DHT22;53289;45.602;11.904;2022-10-16T06:58:41;15.60;79.60
64817;DHT22;53289;45.602;11.904;2022-10-16T07:01:08;15.80;79.80
64817;DHT22;53289;45.602;11.904;2022-10-16T07:03:36;16.00;79.60
64817;DHT22;53289;45.602;11.904;2022-10-16T07:06:05;16.20;79.50
64817;DHT22;53289;45.602;11.904;2022-10-16T07:08:36;16.30;79.00
64817;DHT22;53289;45.602;11.904;2022-10-16T07:11:05;16.50;78.80
64817;DHT22;53289;45.602;11.904;2022-10-16T07:13:38;16.70;78.70
64817;DHT22;53289;45.602;11.904;2022-10-16T07:16:09;16.90;78.00
64817;DHT22;53289;45.602;11.904;2022-10-16T07:18:36;17.10;77.90
64817;DHT22;53289;45.602;11.904;2022-10-16T07:23:34;17.50;76.60
64817;DHT22;53289;45.602;11.904;2022-10-16T07:26:00;17.60;76.10
64817;DHT22;53289;45.602;11.904;2022-10-16T07:28:27;17.80;75.90
64817;DHT22;53289;45.602;11.904;2022-10-16T07:30:52;17.90;74.90
64817;DHT22;53289;45.602;11.904;2022-10-16T07:33:18;17.90;74.80
64817;DHT22;53289;45.602;11.904;2022-10-16T07:35:51;18.00;74.50
64817;DHT22;53289;45.602;11.904;2022-10-16T07:38:18;18.10;74.30
64817;DHT22;53289;45.602;11.904;2022-10-16T07:40:44;18.10;74.70
64817;DHT22;53289;45.602;11.904;2022-10-16T07:43:10;18.10;73.60
64817;DHT22;53289;45.602;11.904;2022-10-16T07:45:37;18.20;74.30
64817;DHT22;53289;45.602;11.904;2022-10-16T07:48:03;18.20;74.10
64817;DHT22;53289;45.602;11.904;2022-10-16T07:50:29;18.20;74.00
64817;DHT22;53289;45.602;11.904;2022-10-16T07:52:54;18.20;74.30
64817;DHT22;53289;45.602;11.904;2022-10-16T07:55:20;18.40;74.10
64817;DHT22;53289;45.602;11.904;2022-10-16T07:57:46;18.50;73.80
64817;DHT22;53289;45.602;11.904;2022-10-16T08:00:12;18.60;73.50
64817;DHT22;53289;45.602;11.904;2022-10-16T08:02:40;18.70;73.60
64817;DHT22;53289;45.602;11.904;2022-10-16T08:05:06;18.90;73.10
64817;DHT22;53289;45.602;11.904;2022-10-16T08:07:32;18.90;73.10
64817;DHT22;53289;45.602;11.904;2022-10-16T08:09:58;19.00;72.30
64817;DHT22;53289;45.602;11.904;2022-10-16T08:12:25;19.30;72.50
64817;DHT22;53289;45.602;11.904;2022-10-16T08:14:51;19.60;71.90
64817;DHT22;53289;45.602;11.904;2022-10-16T08:17:17;19.90;71.30
64817;DHT22;53289;45.602;11.904;2022-10-16T08:19:47;20.20;70.90
64817;DHT22;53289;45.602;11.904;2022-10-16T08:22:14;20.50;69.50
64817;DHT22;53289;45.602;11.904;2022-10-16T08:24:40;20.60;68.60
64817;DHT22;53289;45.602;11.904;2022-10-16T08:27:06;20.80;68.70
64817;DHT22;53289;45.602;11.904;2022-10-16T08:29:34;20.90;68.30
64817;DHT22;53289;45.602;11.904;2022-10-16T08:32:00;21.00;68.00
64817;DHT22;53289;45.602;11.904;2022-10-16T08:34:26;21.20;67.40
64817;DHT22;53289;45.602;11.904;2022-10-16T08:36:54;21.40;67.30
64817;DHT22;53289;45.602;11.904;2022-10-16T08:39:21;21.50;66.90
64817;DHT22;53289;45.602;11.904;2022-10-16T08:45:19;22.10;65.80
64817;DHT22;53289;45.602;11.904;2022-10-16T08:50:28;22.50;65.20
64817;DHT22;53289;45.602;11.904;2022-10-16T08:52:55;22.70;64.30
64817;DHT22;53289;45.602;11.904;2022-10-16T08:57:53;22.80;64.30
64817;DHT22;53289;45.602;11.904;2022-10-16T09:00:20;22.60;64.30
64817;DHT22;53289;45.602;11.904;2022-10-16T09:08:13;22.70;64.20
64817;DHT22;53289;45.602;11.904;2022-10-16T09:14:03;22.90;64.10
64817;DHT22;53289;45.602;11.904;2022-10-16T09:16:35;23.20;63.70
64817;DHT22;53289;45.602;11.904;2022-10-16T09:21:42;23.70;61.90
64817;DHT22;53289;45.602;11.904;2022-10-16T09:24:15;23.80;62.10
64817;DHT22;53289;45.602;11.904;2022-10-16T09:26:43;23.90;62.20
64817;DHT22;53289;45.602;11.904;2022-10-16T09:29:16;24.00;61.00
64817;DHT22;53289;45.602;11.904;2022-10-16T09:31:42;24.10;61.10
64817;DHT22;53289;45.602;11.904;2022-10-16T09:36:53;24.30;59.50
64817;DHT22;53289;45.602;11.904;2022-10-16T09:39:19;24.30;59.80
64817;DHT22;53289;45.602;11.904;2022-10-16T09:41:45;24.30;60.30
64817;DHT22;53289;45.602;11.904;2022-10-16T09:44:28;24.40;59.60
64817;DHT22;53289;45.602;11.904;2022-10-16T09:49:28;24.70;60.30
64817;DHT22;53289;45.602;11.904;2022-10-16T09:52:13;24.80;59.50
64817;DHT22;53289;45.602;11.904;2022-10-16T09:54:53;24.90;59.70
64817;DHT22;53289;45.602;11.904;2022-10-16T09:57:21;25.00;58.20
64817;DHT22;53289;45.602;11.904;2022-10-16T09:59:55;25.20;57.80
64817;DHT22;53289;45.602;11.904;2022-10-16T10:02:50;25.10;58.00
64817;DHT22;53289;45.602;11.904;2022-10-16T10:05:26;25.20;58.40
64817;DHT22;53289;45.602;11.904;2022-10-16T10:07:59;25.40;57.70
64817;DHT22;53289;45.602;11.904;2022-10-16T10:10:30;25.60;57.60
64817;DHT22;53289;45.602;11.904;2022-10-16T10:12:57;25.90;57.30
64817;DHT22;53289;45.602;11.904;2022-10-16T10:15:25;26.10;56.50
64817;DHT22;53289;45.602;11.904;2022-10-16T10:17:54;26.30;56.50
64817;DHT22;53289;45.602;11.904;2022-10-16T10:20:32;26.60;56.30
64817;DHT22;53289;45.602;11.904;2022-10-16T10:23:01;26.90;53.80
64817;DHT22;53289;45.602;11.904;2022-10-16T10:33:54;27.00;54.30
64817;DHT22;53289;45.602;11.904;2022-10-16T10:50:07;27.10;53.40
64817;DHT22;53289;45.602;11.904;2022-10-16T10:55:37;27.40;53.30
64817;DHT22;53289;45.602;11.904;2022-10-16T11:01:13;27.40;53.30
64817;DHT22;53289;45.602;11.904;2022-10-16T11:06:51;27.60;51.80
64817;DHT22;53289;45.602;11.904;2022-10-16T11:09:36;27.80;52.30
64817;DHT22;53289;45.602;11.904;2022-10-16T11:12:19;28.00;51.80
64817;DHT22;53289;45.602;11.904;2022-10-16T11:17:53;28.90;49.10
64817;DHT22;53289;45.602;11.904;2022-10-16T11:20:27;29.40;48.80
64817;DHT22;53289;45.602;11.904;2022-10-16T11:23:05;29.40;48.60
64817;DHT22;53289;45.602;11.904;2022-10-16T11:25:33;29.10;49.40
64817;DHT22;53289;45.602;11.904;2022-10-16T11:33:51;29.90;46.50
64817;DHT22;53289;45.602;11.904;2022-10-16T11:36:34;30.20;46.10
64817;DHT22;53289;45.602;11.904;2022-10-16T11:41:43;30.40;45.30
64817;DHT22;53289;45.602;11.904;2022-10-16T11:44:19;30.50;45.60
64817;DHT22;53289;45.602;11.904;2022-10-16T11:49:31;30.90;44.10
64817;DHT22;53289;45.602;11.904;2022-10-16T11:57:40;30.70;45.10
64817;DHT22;53289;45.602;11.904;2022-10-16T12:08:23;31.30;44.00
64817;DHT22;53289;45.602;11.904;2022-10-16T12:10:50;31.40;44.00
64817;DHT22;53289;45.602;11.904;2022-10-16T12:16:06;31.20;43.40
64817;DHT22;53289;45.602;11.904;2022-10-16T12:18:33;31.00;44.70
64817;DHT22;53289;45.602;11.904;2022-10-16T12:20:59;30.90;45.00
64817;DHT22;53289;45.602;11.904;2022-10-16T12:26:13;30.70;45.50
64817;DHT22;53289;45.602;11.904;2022-10-16T12:28:39;30.90;45.50
64817;DHT22;53289;45.602;11.904;2022-10-16T12:31:08;31.00;45.20
64817;DHT22;53289;45.602;11.904;2022-10-16T12:33:40;30.90;45.20
64817;DHT22;53289;45.602;11.904;2022-10-16T12:36:14;30.60;45.30
64817;DHT22;53289;45.602;11.904;2022-10-16T12:38:50;30.40;45.60
64817;DHT22;53289;45.602;11.904;2022-10-16T12:41:31;30.30;46.20
64817;DHT22;53289;45.602;11.904;2022-10-16T12:43:59;30.10;45.40
64817;DHT22;53289;45.602;11.904;2022-10-16T13:08:38;29.00;47.90
64817;DHT22;53289;45.602;11.904;2022-10-16T13:14:29;29.10;46.90
64817;DHT22;53289;45.602;11.904;2022-10-16T13:22:58;28.80;47.80
64817;DHT22;53289;45.602;11.904;2022-10-16T13:28:04;28.40;49.10
64817;DHT22;53289;45.602;11.904;2022-10-16T13:30:41;28.30;49.10
64817;DHT22;53289;45.602;11.904;2022-10-16T13:33:18;28.20;49.40
64817;DHT22;53289;45.602;11.904;2022-10-16T13:35:51;28.20;49.60
64817;DHT22;53289;45.602;11.904;2022-10-16T13:38:22;28.20;49.20
64817;DHT22;53289;45.602;11.904;2022-10-16T13:41:02;28.50;48.80
64817;DHT22;53289;45.602;11.904;2022-10-16T13:43:32;29.00;47.80
64817;DHT22;53289;45.602;11.904;2022-10-16T13:46:02;29.30;47.10
64817;DHT22;53289;45.602;11.904;2022-10-16T13:48:30;29.40;46.80
64817;DHT22;53289;45.602;11.904;2022-10-16T13:51:06;29.50;46.40
64817;DHT22;53289;45.602;11.904;2022-10-16T13:53:34;29.60;45.80
64817;DHT22;53289;45.602;11.904;2022-10-16T13:56:04;29.60;45.90
64817;DHT22;53289;45.602;11.904;2022-10-16T13:58:31;29.60;46.10
64817;DHT22;53289;45.602;11.904;2022-10-16T14:00:59;29.60;45.70
64817;DHT22;53289;45.602;11.904;2022-10-16T14:03:27;29.30;46.00
64817;DHT22;53289;45.602;11.904;2022-10-16T14:05:59;29.10;46.50
64817;DHT22;53289;45.602;11.904;2022-10-16T14:08:27;29.10;46.60
64817;DHT22;53289;45.602;11.904;2022-10-16T14:10:56;29.10;46.30
64817;DHT22;53289;45.602;11.904;2022-10-16T14:13:39;29.20;46.40
64817;DHT22;53289;45.602;11.904;2022-10-16T14:16:21;29.20;46.20
64817;DHT22;53289;45.602;11.904;2022-10-16T14:18:56;29.20;46.40
64817;DHT22;53289;45.602;11.904;2022-10-16T14:21:23;29.10;46.50
64817;DHT22;53289;45.602;11.904;2022-10-16T14:23:50;28.90;47.10
64817;DHT22;53289;45.602;11.904;2022-10-16T14:26:19;28.80;47.50
64817;DHT22;53289;45.602;11.904;2022-10-16T14:28:47;28.60;47.70
64817;DHT22;53289;45.602;11.904;2022-10-16T14:33:45;28.40;48.20
64817;DHT22;53289;45.602;11.904;2022-10-16T14:36:13;28.30;48.50
64817;DHT22;53289;45.602;11.904;2022-10-16T14:38:43;28.20;48.50
64817;DHT22;53289;45.602;11.904;2022-10-16T14:41:15;28.20;48.60
64817;DHT22;53289;45.602;11.904;2022-10-16T14:43:42;28.20;48.80
64817;DHT22;53289;45.602;11.904;2022-10-16T14:46:28;28.10;48.70
64817;DHT22;53289;45.602;11.904;2022-10-16T14:51:40;27.60;49.10
64817;DHT22;53289;45.602;11.904;2022-10-16T14:54:11;27.40;50.00
64817;DHT22;53289;45.602;11.904;2022-10-16T14:56:56;27.20;50.60
64817;DHT22;53289;45.602;11.904;2022-10-16T14:59:41;27.10;50.60
64817;DHT22;53289;45.602;11.904;2022-10-16T15:02:30;27.00;51.10
64817;DHT22;53289;45.602;11.904;2022-10-16T15:04:57;26.90;51.30
64817;DHT22;53289;45.602;11.904;2022-10-16T15:07:24;26.80;51.60
64817;DHT22;53289;45.602;11.904;2022-10-16T15:09:51;26.70;51.80
64817;DHT22;53289;45.602;11.904;2022-10-16T15:12:18;26.50;52.00
64817;DHT22;53289;45.602;11.904;2022-10-16T15:14:44;26.30;52.60
64817;DHT22;53289;45.602;11.904;2022-10-16T15:17:10;26.10;53.10
64817;DHT22;53289;45.602;11.904;2022-10-16T15:19:37;25.90;53.30
64817;DHT22;53289;45.602;11.904;2022-10-16T15:22:02;25.80;53.60
64817;DHT22;53289;45.602;11.904;2022-10-16T15:24:28;25.60;53.90
64817;DHT22;53289;45.602;11.904;2022-10-16T15:26:54;25.50;54.00
64817;DHT22;53289;45.602;11.904;2022-10-16T15:29:21;25.40;54.10
64817;DHT22;53289;45.602;11.904;2022-10-16T15:31:47;25.30;54.20
64817;DHT22;53289;45.602;11.904;2022-10-16T15:34:13;25.20;54.40
64817;DHT22;53289;45.602;11.904;2022-10-16T15:36:40;25.10;54.70
64817;DHT22;53289;45.602;11.904;2022-10-16T15:39:18;24.90;55.00
64817;DHT22;53289;45.602;11.904;2022-10-16T15:41:45;24.90;55.30
64817;DHT22;53289;45.602;11.904;2022-10-16T15:44:17;24.70;55.50
64817;DHT22;53289;45.602;11.904;2022-10-16T15:46:43;24.60;55.80
64817;DHT22;53289;45.602;11.904;2022-10-16T15:49:10;24.50;56.10
64817;DHT22;53289;45.602;11.904;2022-10-16T15:51:41;24.30;56.50
64817;DHT22;53289;45.602;11.904;2022-10-16T15:54:09;24.20;56.80
64817;DHT22;53289;45.602;11.904;2022-10-16T15:56:34;24.00;57.30
64817;DHT22;53289;45.602;11.904;2022-10-16T15:59:03;23.80;57.80
64817;DHT22;53289;45.602;11.904;2022-10-16T16:01:33;23.60;58.20
64817;DHT22;53289;45.602;11.904;2022-10-16T16:03:59;23.40;58.80
64817;DHT22;53289;45.602;11.904;2022-10-16T16:06:25;23.30;59.10
64817;DHT22;53289;45.602;11.904;2022-10-16T16:08:51;23.10;59.40
64817;DHT22;53289;45.602;11.904;2022-10-16T16:11:18;22.90;60.10
64817;DHT22;53289;45.602;11.904;2022-10-16T16:13:45;22.70;60.30
64817;DHT22;53289;45.602;11.904;2022-10-16T16:16:13;22.50;60.70
64817;DHT22;53289;45.602;11.904;2022-10-16T16:18:40;22.40;61.10
64817;DHT22;53289;45.602;11.904;2022-10-16T16:21:06;22.20;61.60
64817;DHT22;53289;45.602;11.904;2022-10-16T16:23:33;22.00;62.00
64817;DHT22;53289;45.602;11.904;2022-10-16T16:26:06;21.90;62.40
64817;DHT22;53289;45.602;11.904;2022-10-16T16:28:33;21.70;62.60
64817;DHT22;53289;45.602;11.904;2022-10-16T16:30:59;21.60;62.90
64817;DHT22;53289;45.602;11.904;2022-10-16T16:33:25;21.40;63.00
64817;DHT22;53289;45.602;11.904;2022-10-16T16:35:56;21.30;63.60
64817;DHT22;53289;45.602;11.904;2022-10-16T16:38:22;21.20;63.90
64817;DHT22;53289;45.602;11.904;2022-10-16T16:40:48;21.10;64.10
64817;DHT22;53289;45.602;11.904;2022-10-16T16:43:14;20.90;64.30
64817;DHT22;53289;45.602;11.904;2022-10-16T16:45:40;20.80;64.50
64817;DHT22;53289;45.602;11.904;2022-10-16T16:48:06;20.70;64.80
64817;DHT22;53289;45.602;11.904;2022-10-16T16:50:38;20.70;64.90
64817;DHT22;53289;45.602;11.904;2022-10-16T16:53:04;20.60;65.10
64817;DHT22;53289;45.602;11.904;2022-10-16T16:55:30;20.40;65.30
64817;DHT22;53289;45.602;11.904;2022-10-16T16:57:58;20.20;65.60
64817;DHT22;53289;45.602;11.904;2022-10-16T17:00:24;20.10;65.80
64817;DHT22;53289;45.602;11.904;2022-10-16T17:02:50;20.00;66.10
64817;DHT22;53289;45.602;11.904;2022-10-16T17:05:17;19.90;66.50
64817;DHT22;53289;45.602;11.904;2022-10-16T17:07:43;19.70;66.60
64817;DHT22;53289;45.602;11.904;2022-10-16T17:10:10;19.60;66.90
64817;DHT22;53289;45.602;11.904;2022-10-16T17:12:37;19.50;67.00
64817;DHT22;53289;45.602;11.904;2022-10-16T17:15:03;19.40;67.30
64817;DHT22;53289;45.602;11.904;2022-10-16T17:17:29;19.40;67.50
64817;DHT22;53289;45.602;11.904;2022-10-16T17:19:55;19.30;67.50
64817;DHT22;53289;45.602;11.904;2022-10-16T17:22:21;19.20;67.60
64817;DHT22;53289;45.602;11.904;2022-10-16T17:24:50;19.20;67.90
64817;DHT22;53289;45.602;11.904;2022-10-16T17:27:20;19.10;68.40
64817;DHT22;53289;45.602;11.904;2022-10-16T17:29:50;18.90;68.50
64817;DHT22;53289;45.602;11.904;2022-10-16T17:32:16;18.80;68.80
64817;DHT22;53289;45.602;11.904;2022-10-16T17:34:42;18.80;68.90
64817;DHT22;53289;45.602;11.904;2022-10-16T17:37:08;18.70;69.20
64817;DHT22;53289;45.602;11.904;2022-10-16T17:39:34;18.60;69.70
64817;DHT22;53289;45.602;11.904;2022-10-16T17:42:00;18.50;69.70
64817;DHT22;53289;45.602;11.904;2022-10-16T17:44:26;18.40;69.60
64817;DHT22;53289;45.602;11.904;2022-10-16T17:46:53;18.40;69.70
64817;DHT22;53289;45.602;11.904;2022-10-16T17:49:19;18.40;69.80
64817;DHT22;53289;45.602;11.904;2022-10-16T17:51:48;18.40;69.90
64817;DHT22;53289;45.602;11.904;2022-10-16T17:54:14;18.30;69.90
64817;DHT22;53289;45.602;11.904;2022-10-16T17:56:40;18.30;70.20
64817;DHT22;53289;45.602;11.904;2022-10-16T17:59:06;18.20;70.30
64817;DHT22;53289;45.602;11.904;2022-10-16T18:01:37;18.10;70.20
64817;DHT22;53289;45.602;11.904;2022-10-16T18:04:10;18.10;70.30